Pergamino, Argentina
Current Conditions -  °F | °C
As of 6:00 AM on Saturday 01 Nov 2014 (Local Time) from SAAR Reporting Station
Light Rain Light Rain  
Wind Chill: 52°   Ceiling: 4500
Heat Index: 52°   Visibility: 4mi
Dew Point: 50°   Wind: 15mph
Humidity: 94%   Direction: 140°SE
Pressure: 30.09"   Gusts: NA
Location:  33.9°S, 60.57°W
Report Text: SAAR 010900Z 14013KT 6000 -RA SCT008 OVC045 11/10 Q1019
Loading
Personal Weather Stations






























Interactive Weather Map
Tropical Storm Tracking
New forecast layout! Learn more

10-Day Weather Forecast

Advertisements
Track Severe Weather on mobile